Time;durP1;ratioP1;P1;durP2;ratioP2;P2;SDS_P1;SDS_P2;PMS_P1;PMS_P2;Temp;Humidity;BMP_temperature;BMP_pressure;BME280_temperature;BME280_humidity;BME280_pressure;Samples;Min_cycle;Max_cycle;Signal;HPM_P1;HPM_P2
2023/09/21 00:01:41;;;;;;;9.60;5.47;;;20.10;87.10;;;;;;5035114;28;20542;-27
2023/09/21 00:04:08;;;;;;;9.27;5.22;;;20.50;87.30;;;;;;5036064;28;20081;-27
2023/09/21 00:06:36;;;;;;;9.52;5.13;;;;;;;;;;5055094;28;20147;-28
2023/09/21 00:09:03;;;;;;;10.57;5.50;;;20.60;83.30;;;;;;5038537;28;20053;-27
2023/09/21 00:11:30;;;;;;;10.10;5.45;;;20.00;87.50;;;;;;5034735;28;20056;-27
2023/09/21 00:13:58;;;;;;;8.48;5.10;;;20.80;74.70;;;;;;5034190;28;20505;-27
2023/09/21 00:16:27;;;;;;;9.02;4.97;;;;;;;;;;5034700;28;20387;-27
2023/09/21 00:18:54;;;;;;;9.48;5.40;;;20.30;87.50;;;;;;5034614;28;20041;-27
2023/09/21 00:21:21;;;;;;;8.73;4.95;;;;;;;;;;5034434;28;20053;-27
2023/09/21 00:23:48;;;;;;;8.85;5.00;;;20.50;87.60;;;;;;5034392;28;20132;-28
2023/09/21 00:26:15;;;;;;;7.68;4.63;;;21.30;82.40;;;;;;5034130;28;20046;-27
2023/09/21 00:28:43;;;;;;;7.63;4.80;;;19.30;74.50;;;;;;5034353;28;20128;-27
2023/09/21 00:31:11;;;;;;;7.72;5.30;;;20.30;87.10;;;;;;5034573;28;20053;-27
2023/09/21 00:33:39;;;;;;;7.20;4.50;;;21.20;87.60;;;;;;5034148;28;20050;-28
2023/09/21 00:36:09;;;;;;;7.60;4.88;;;20.40;70.70;;;;;;5033407;28;20045;-28
2023/09/21 00:38:37;;;;;;;9.52;4.88;;;;;;;;;;5034044;28;20056;-28
2023/09/21 00:41:04;;;;;;;6.78;4.53;;;;;;;;;;5034399;28;20069;-28
2023/09/21 00:43:32;;;;;;;7.05;4.40;;;20.30;87.80;;;;;;5034098;28;20124;-27
2023/09/21 00:46:00;;;;;;;7.45;5.00;;;20.40;85.20;;;;;;5034001;28;20483;-27
2023/09/21 00:48:33;;;;;;;6.72;4.57;;;20.00;86.90;;;;;;5033658;28;20137;-27
2023/09/21 00:51:00;;;;;;;6.85;4.63;;;;;;;;;;5034017;28;20516;-28
2023/09/21 00:53:28;;;;;;;6.32;4.60;;;20.50;87.60;;;;;;5033971;28;20046;-28
2023/09/21 00:55:57;;;;;;;7.47;4.38;;;19.10;86.40;;;;;;5032213;28;20053;-27
2023/09/21 00:58:25;;;;;;;10.30;4.47;;;;;;;;;;5033981;28;20129;-27
2023/09/21 01:00:54;;;;;;;7.38;4.75;;;;;;;;;;5033727;28;20490;-28
2023/09/21 01:03:24;;;;;;;6.05;4.35;;;20.50;87.50;;;;;;5033501;28;20050;-27
2023/09/21 01:05:53;;;;;;;6.63;4.15;;;20.70;88.00;;;;;;5033140;28;20060;-27
2023/09/21 01:08:25;;;;;;;6.65;4.18;;;20.70;80.50;;;;;;5034059;28;20558;-27
2023/09/21 01:10:53;;;;;;;7.38;4.25;;;20.30;82.00;;;;;;5036765;28;20367;-27
2023/09/21 01:13:20;;;;;;;6.60;4.47;;;;;;;;;;5047052;28;20505;-27
2023/09/21 01:15:59;;;;;;;5.90;3.80;;;19.80;70.20;;;;;;5032888;28;20045;-27
2023/09/21 01:18:26;;;;;;;6.35;4.30;;;19.90;86.80;;;;;;5013732;28;20153;-27
2023/09/21 01:20:58;;;;;;;7.22;3.97;;;20.40;73.40;;;;;;5013820;28;20050;-28
2023/09/21 01:23:34;;;;;;;7.13;4.10;;;20.40;83.30;;;;;;5013742;28;20502;-28
2023/09/21 01:26:02;;;;;;;7.07;4.18;;;21.30;85.90;;;;;;5013561;28;20137;-27
2023/09/21 01:28:32;;;;;;;6.82;4.22;;;20.80;71.30;;;;;;5013418;28;20127;-28
2023/09/21 01:31:02;;;;;;;5.38;3.63;;;;;;;;;;5025032;28;20455;-27
2023/09/21 01:33:28;;;;;;;7.70;4.20;;;20.10;86.80;;;;;;5033333;28;20124;-27
2023/09/21 01:35:55;;;;;;;5.43;3.67;;;;;;;;;;5032539;28;20216;-28
2023/09/21 01:38:27;;;;;;;5.88;3.80;;;20.60;87.90;;;;;;5033011;28;20561;-27
2023/09/21 01:40:55;;;;;;;5.95;3.75;;;19.90;80.30;;;;;;5033171;28;20049;-27
2023/09/21 01:43:22;;;;;;;6.65;4.03;;;20.50;78.10;;;;;;5032587;28;20133;-28
2023/09/21 01:45:50;;;;;;;5.25;3.47;;;19.80;86.60;;;;;;5033217;28;20402;-27
2023/09/21 01:48:18;;;;;;;5.63;3.80;;;20.50;87.10;;;;;;5033062;28;20133;-27
2023/09/21 01:50:47;;;;;;;6.53;4.07;;;20.60;87.50;;;;;;5032461;28;20494;-27
2023/09/21 01:53:14;;;;;;;6.20;3.60;;;;;;;;;;5032673;28;20081;-28
2023/09/21 01:55:41;;;;;;;4.60;3.15;;;19.30;73.90;;;;;;5032626;28;20069;-27
2023/09/21 01:58:10;;;;;;;5.70;3.42;;;20.80;70.70;;;;;;5032643;28;20084;-28
2023/09/21 02:00:39;;;;;;;6.38;4.05;;;20.60;87.10;;;;;;5032633;28;20049;-27
2023/09/21 02:03:08;;;;;;;5.25;3.63;;;;;;;;;;5032560;28;20049;-27
2023/09/21 02:05:35;;;;;;;5.57;3.60;;;19.90;86.70;;;;;;5045655;28;20101;-27
2023/09/21 02:08:04;;;;;;;6.80;3.60;;;19.90;77.20;;;;;;5052563;28;20053;-28
2023/09/21 02:10:31;;;;;;;5.00;3.40;;;20.90;87.10;;;;;;5038303;28;20119;-27
2023/09/21 02:12:59;;;;;;;5.88;3.97;;;20.60;83.40;;;;;;5032213;28;20535;-28
2023/09/21 02:15:28;;;;;;;4.93;3.15;;;20.40;86.80;;;;;;5031191;28;20046;-27
2023/09/21 02:17:55;;;;;;;6.00;3.80;;;;;;;;;;5032580;28;20092;-28
2023/09/21 02:20:22;;;;;;;5.28;3.60;;;;;;;;;;5032395;28;20188;-27
2023/09/21 02:22:50;;;;;;;5.22;3.20;;;20.10;86.80;;;;;;5030614;28;20546;-27
2023/09/21 02:25:17;;;;;;;5.93;3.58;;;20.50;87.60;;;;;;5031215;28;20045;-28
2023/09/21 02:27:45;;;;;;;5.03;3.30;;;20.10;87.20;;;;;;5031636;28;20060;-27
2023/09/21 02:30:13;;;;;;;4.55;3.42;;;20.70;87.80;;;;;;5031219;28;20080;-27
2023/09/21 02:32:42;;;;;;;5.10;3.25;;;20.50;87.30;;;;;;5031655;28;20053;-27
2023/09/21 02:35:13;;;;;;;6.35;3.42;;;20.90;75.10;;;;;;5031505;28;20409;-27
2023/09/21 02:37:44;;;;;;;5.18;3.20;;;20.50;87.70;;;;;;5028376;28;20061;-27
2023/09/21 02:40:14;;;;;;;5.07;3.30;;;21.20;87.30;;;;;;5032031;28;20172;-27
2023/09/21 02:42:42;;;;;;;4.55;3.05;;;20.40;83.10;;;;;;5031220;28;20052;-27
2023/09/21 02:45:10;;;;;;;5.20;3.30;;;20.20;70.20;;;;;;5031181;28;20049;-29
2023/09/21 02:47:38;;;;;;;3.83;2.63;;;20.70;75.00;;;;;;5030009;28;20380;-28
2023/09/21 02:50:14;;;;;;;4.38;2.90;;;20.30;86.70;;;;;;5031289;28;20424;-27
2023/09/21 02:52:44;;;;;;;5.65;3.20;;;21.40;70.80;;;;;;5029682;28;20041;-28
2023/09/21 02:55:11;;;;;;;4.65;3.00;;;20.40;86.80;;;;;;5031375;28;20049;-27
2023/09/21 02:57:39;;;;;;;4.47;3.10;;;19.90;77.90;;;;;;5031506;28;20045;-28
2023/09/21 03:00:14;;;;;;;4.82;2.92;;;20.20;70.10;;;;;;5031452;28;20103;-29
2023/09/21 03:02:40;;;;;;;;;;;20.30;70.60;;;;;;5031122;28;20049;-27
2023/09/21 03:05:11;;;;;;;3.45;2.65;;;20.40;87.80;;;;;;5038441;28;20023;-27
2023/09/21 03:07:41;;;;;;;3.90;2.90;;;20.50;87.30;;;;;;5031399;28;20125;-27
2023/09/21 03:10:10;;;;;;;3.95;2.75;;;20.20;70.10;;;;;;5031566;28;20502;-28
2023/09/21 03:12:37;;;;;;;4.60;3.20;;;;;;;;;;5031718;28;20099;-27
2023/09/21 03:15:07;;;;;;;4.32;2.78;;;19.90;73.60;;;;;;5031333;28;20064;-28
2023/09/21 03:17:36;;;;;;;4.15;2.70;;;20.10;87.50;;;;;;5031620;28;20084;-27
2023/09/21 03:20:18;;;;;;;4.10;2.80;;;;;;;;;;5031737;28;20053;-27
2023/09/21 03:22:47;;;;;;;3.67;2.60;;;20.50;87.20;;;;;;5019403;28;20056;-27
2023/09/21 03:25:16;;;;;;;4.28;2.83;;;20.00;86.30;;;;;;5030601;28;20057;-27
2023/09/21 03:27:45;;;;;;;3.95;2.72;;;19.80;74.90;;;;;;5031209;28;20057;-28
2023/09/21 03:30:13;;;;;;;4.30;2.42;;;20.20;87.00;;;;;;5031372;28;20103;-27
2023/09/21 03:32:40;;;;;;;3.88;2.60;;;20.70;87.70;;;;;;5031454;28;20478;-27
2023/09/21 03:35:10;;;;;;;4.03;2.42;;;20.20;70.10;;;;;;5032414;28;20049;-29
2023/09/21 03:37:38;;;;;;;3.30;2.40;;;19.80;86.90;;;;;;5029374;28;20061;-27
2023/09/21 03:40:07;;;;;;;3.10;2.30;;;20.20;70.10;;;;;;5034719;28;20509;-29
2023/09/21 03:42:34;;;;;;;3.97;2.60;;;19.80;75.30;;;;;;5035391;28;20136;-27
2023/09/21 03:45:01;;;;;;;3.92;2.70;;;;;;;;;;5034803;28;20152;-29
2023/09/21 03:47:28;;;;;;;4.15;3.13;;;20.50;86.80;;;;;;5034981;28;20088;-27
2023/09/21 03:49:54;;;;;;;4.28;2.50;;;20.20;86.60;;;;;;5035307;28;20136;-27
2023/09/21 03:52:22;;;;;;;3.40;2.50;;;;;;;;;;5034714;28;20056;-28
2023/09/21 03:54:49;;;;;;;3.38;2.70;;;20.20;86.70;;;;;;5020563;28;20128;-27
2023/09/21 03:57:17;;;;;;;4.15;2.60;;;20.80;71.00;;;;;;5016513;28;20078;-28
2023/09/21 03:59:46;;;;;;;3.10;2.40;;;20.10;79.70;;;;;;5034751;28;20120;-28
2023/09/21 04:02:13;;;;;;;3.60;2.47;;;19.30;86.50;;;;;;5034383;28;20056;-27
2023/09/21 04:04:41;;;;;;;4.55;2.50;;;;;;;;;;5040310;28;20110;-28
2023/09/21 04:07:08;;;;;;;3.20;2.40;;;;;;;;;;5030330;28;20049;-27
2023/09/21 04:09:35;;;;;;;3.42;2.42;;;19.80;86.50;;;;;;5015171;28;20054;-27
2023/09/21 04:12:02;;;;;;;2.88;2.15;;;;;;;;;;5025386;28;20499;-28
2023/09/21 04:14:30;;;;;;;3.25;2.40;;;20.20;73.30;;;;;;5034877;28;20475;-27
2023/09/21 04:16:57;;;;;;;4.60;2.70;;;20.70;87.70;;;;;;5034310;28;20056;-27
2023/09/21 04:19:24;;;;;;;3.42;2.35;;;;;;;;;;5034912;28;20089;-29
2023/09/21 04:21:51;;;;;;;3.05;2.30;;;;;;;;;;5034525;28;20128;-27
2023/09/21 04:24:18;;;;;;;3.20;2.38;;;;;;;;;;5025301;28;20057;-28
2023/09/21 04:26:45;;;;;;;3.70;2.53;;;20.50;86.90;;;;;;5034352;28;20144;-27
2023/09/21 04:29:15;;;;;;;2.90;2.30;;;19.90;86.80;;;;;;5034051;28;20582;-27
2023/09/21 04:31:44;;;;;;;3.53;2.20;;;20.20;71.30;;;;;;5034257;28;20087;-26
2023/09/21 04:34:11;;;;;;;4.40;2.58;;;20.00;86.60;;;;;;5017681;28;20077;-27
2023/09/21 04:36:38;;;;;;;3.10;2.40;;;19.20;86.20;;;;;;5027232;28;20124;-27
2023/09/21 04:39:05;;;;;;;3.65;2.42;;;20.20;87.50;;;;;;5024891;28;20057;-28
2023/09/21 04:41:33;;;;;;;3.25;2.33;;;19.80;86.40;;;;;;5034374;28;20084;-27
2023/09/21 04:44:02;;;;;;;3.28;2.10;;;19.80;86.50;;;;;;5033672;28;20443;-27
2023/09/21 04:46:31;;;;;;;2.95;2.13;;;20.00;76.80;;;;;;5032985;28;20049;-28
2023/09/21 04:48:59;;;;;;;2.97;2.20;;;20.60;87.20;;;;;;5033886;28;20100;-27
2023/09/21 04:51:26;;;;;;;2.88;2.20;;;20.20;86.70;;;;;;5033750;28;20132;-27
2023/09/21 04:53:53;;;;;;;2.53;2.00;;;;;;;;;;5033428;28;20132;-30
2023/09/21 04:56:19;;;;;;;4.88;2.33;;;19.70;74.00;;;;;;5033230;28;20092;-27
2023/09/21 04:58:47;;;;;;;3.47;2.28;;;;;;;;;;5033617;28;20053;-27
2023/09/21 05:01:14;;;;;;;4.55;2.15;;;20.20;74.90;;;;;;5033422;28;20049;-27
2023/09/21 05:03:40;;;;;;;3.10;2.20;;;20.40;86.90;;;;;;5017510;28;20069;-27
2023/09/21 05:06:08;;;;;;;3.05;2.10;;;20.20;70.00;;;;;;5046192;28;20063;-29
2023/09/21 05:08:36;;;;;;;2.33;1.90;;;;;;;;;;5033628;28;20148;-29
2023/09/21 05:11:03;;;;;;;2.78;2.20;;;20.20;87.60;;;;;;5033728;28;20053;-27
2023/09/21 05:13:31;;;;;;;2.50;2.13;;;19.30;86.60;;;;;;5033725;28;20099;-27
2023/09/21 05:15:58;;;;;;;2.60;2.10;;;;;;;;;;5033384;28;20049;-29
2023/09/21 05:18:25;;;;;;;3.15;2.00;;;20.70;86.90;;;;;;5029445;28;20046;-27
2023/09/21 05:20:51;;;;;;;3.10;2.10;;;20.30;86.80;;;;;;5014074;28;20609;-27
2023/09/21 05:23:19;;;;;;;3.05;2.20;;;20.20;76.50;;;;;;5052928;28;20121;-28
2023/09/21 05:25:46;;;;;;;3.33;2.10;;;19.20;74.40;;;;;;5052947;28;20128;-27
2023/09/21 05:28:14;;;;;;;2.60;2.20;;;19.30;86.90;;;;;;5053133;28;20048;-27
2023/09/21 05:30:41;;;;;;;3.97;2.15;;;21.00;87.30;;;;;;5053500;28;20056;-27
2023/09/21 05:33:08;;;;;;;3.40;2.10;;;;;;;;;;5053602;28;20454;-28
2023/09/21 05:35:35;;;;;;;3.45;2.10;;;19.60;87.00;;;;;;5053319;28;20152;-27
2023/09/21 05:38:05;;;;;;;5.30;2.00;;;19.90;86.90;;;;;;5034150;28;20435;-27
2023/09/21 05:40:33;;;;;;;3.30;2.15;;;20.30;86.70;;;;;;5032911;28;20417;-27
2023/09/21 05:43:01;;;;;;;2.70;2.00;;;;;;;;;;5032614;28;20483;-28
2023/09/21 05:45:28;;;;;;;3.28;2.13;;;20.50;82.00;;;;;;5032723;28;20145;-27
2023/09/21 05:47:55;;;;;;;3.35;2.05;;;;;;;;;;5026086;28;20423;-29
2023/09/21 05:50:23;;;;;;;2.78;2.20;;;;;;;;;;5024126;28;20041;-27
2023/09/21 05:52:50;;;;;;;2.58;1.85;;;20.30;87.50;;;;;;5026335;28;20120;-27
2023/09/21 05:55:17;;;;;;;3.63;2.30;;;19.20;80.70;;;;;;5022986;28;20045;-28
2023/09/21 05:57:47;;;;;;;4.45;2.15;;;19.30;86.20;;;;;;5029045;28;20084;-29
2023/09/21 06:00:17;;;;;;;3.65;2.13;;;20.50;86.80;;;;;;5032163;28;20493;-29
2023/09/21 06:02:44;;;;;;;2.80;1.92;;;21.00;87.40;;;;;;5032005;28;20053;-29
2023/09/21 06:05:11;;;;;;;2.72;2.05;;;;;;;;;;5032204;28;20120;-28
2023/09/21 06:07:38;;;;;;;3.53;1.88;;;20.40;78.30;;;;;;5019087;28;20102;-29
2023/09/21 06:10:06;;;;;;;3.70;2.38;;;20.00;87.30;;;;;;5012961;28;20046;-27
2023/09/21 06:12:33;;;;;;;2.70;2.10;;;19.90;86.70;;;;;;5012891;28;20149;-27
2023/09/21 06:15:05;;;;;;;2.53;1.95;;;20.10;73.80;;;;;;5027936;28;20498;-28
2023/09/21 06:17:32;;;;;;;4.30;2.00;;;20.60;87.10;;;;;;5032493;28;20053;-27
2023/09/21 06:19:59;;;;;;;3.33;2.00;;;20.30;87.00;;;;;;5032642;28;20060;-27
2023/09/21 06:22:26;;;;;;;2.08;1.80;;;;;;;;;;5030638;28;20057;-28
2023/09/21 06:24:53;;;;;;;2.42;1.85;;;20.00;86.50;;;;;;5012832;28;20133;-27
2023/09/21 06:27:20;;;;;;;2.88;2.08;;;;;;;;;;5012343;28;20562;-29
2023/09/21 06:29:46;;;;;;;2.70;2.10;;;20.20;87.10;;;;;;5012607;28;20555;-27
2023/09/21 06:32:14;;;;;;;2.58;1.85;;;20.30;87.20;;;;;;5027350;28;20053;-26
2023/09/21 06:34:42;;;;;;;3.17;2.28;;;20.50;87.10;;;;;;5032065;28;20049;-27
2023/09/21 06:37:09;;;;;;;2.53;1.73;;;20.40;86.20;;;;;;5031751;28;20049;-28
2023/09/21 06:39:36;;;;;;;4.57;2.10;;;20.80;87.10;;;;;;5032077;28;20056;-27
2023/09/21 06:42:03;;;;;;;3.03;2.00;;;19.90;78.10;;;;;;5032073;28;20156;-27
2023/09/21 06:44:30;;;;;;;2.03;1.70;;;20.30;86.40;;;;;;5032230;28;20129;-27
2023/09/21 06:46:57;;;;;;;2.25;1.60;;;;;;;;;;5028656;28;20538;-28
2023/09/21 06:49:26;;;;;;;3.65;1.70;;;20.90;69.50;;;;;;5014593;28;20132;-28
2023/09/21 06:51:54;;;;;;;2.72;1.90;;;21.10;85.70;;;;;;5025590;28;20403;-27
2023/09/21 06:54:23;;;;;;;3.35;1.80;;;;;;;;;;5031923;28;20059;-29
2023/09/21 06:56:50;;;;;;;3.83;2.00;;;20.50;85.60;;;;;;5031528;28;20123;-28
2023/09/21 06:59:17;;;;;;;2.45;1.70;;;;;;;;;;5031504;28;20049;-29
2023/09/21 07:01:43;;;;;;;2.47;1.77;;;21.60;85.30;;;;;;5031108;28;20132;-28
2023/09/21 07:04:10;;;;;;;4.10;1.75;;;21.60;74.70;;;;;;5027143;28;20129;-27
2023/09/21 07:06:40;;;;;;;2.92;1.77;;;21.50;85.20;;;;;;5030999;28;20104;-28
2023/09/21 07:09:09;;;;;;;4.28;1.63;;;21.00;79.60;;;;;;5029195;28;20057;-27
2023/09/21 07:11:36;;;;;;;2.28;1.70;;;;;;;;;;5023023;28;20132;-28
2023/09/21 07:14:03;;;;;;;2.65;1.70;;;20.90;84.80;;;;;;5031635;28;20129;-28
2023/09/21 07:16:30;;;;;;;2.58;1.63;;;;;;;;;;5031510;28;20057;-28
2023/09/21 07:18:57;;;;;;;5.80;1.75;;;;;;;;;;5031687;28;20136;-29
2023/09/21 07:21:24;;;;;;;3.10;1.85;;;21.80;85.30;;;;;;5031671;28;20081;-27
2023/09/21 07:23:52;;;;;;;3.28;1.55;;;21.40;68.50;;;;;;5029528;28;20157;-29
2023/09/21 07:26:19;;;;;;;2.17;1.70;;;20.80;84.30;;;;;;5011752;28;20081;-27
2023/09/21 07:28:46;;;;;;;2.22;1.60;;;;;;;;;;5012007;28;20154;-28
2023/09/21 07:31:13;;;;;;;3.67;1.90;;;22.00;84.60;;;;;;5011489;28;20061;-27
2023/09/21 07:33:40;;;;;;;2.55;1.85;;;20.90;71.30;;;;;;5012275;28;20145;-28
2023/09/21 07:36:08;;;;;;;2.78;1.60;;;21.90;84.60;;;;;;5013522;28;20062;-28
2023/09/21 07:38:35;;;;;;;2.72;1.80;;;;;;;;;;5031350;28;20059;-27
2023/09/21 07:41:06;;;;;;;2.00;1.63;;;21.20;73.50;;;;;;5031233;28;20132;-27
2023/09/21 07:43:33;;;;;;;2.33;1.85;;;21.50;84.30;;;;;;5031413;28;20072;-28
2023/09/21 07:45:59;;;;;;;3.25;1.90;;;22.30;85.60;;;;;;5031145;28;20136;-27
2023/09/21 07:48:27;;;;;;;2.78;1.77;;;;;;;;;;5031245;28;20080;-28
2023/09/21 07:50:56;;;;;;;2.40;1.80;;;;;;;;;;5028988;28;20135;-29
2023/09/21 07:53:23;;;;;;;2.00;1.60;;;22.10;69.00;;;;;;5021537;28;20081;-27
2023/09/21 07:55:59;;;;;;;2.20;1.60;;;21.90;84.70;;;;;;5020471;28;20128;-27
2023/09/21 07:58:27;;;;;;;3.95;1.65;;;21.50;84.40;;;;;;5019539;28;20116;-28
2023/09/21 08:00:55;;;;;;;2.17;1.60;;;21.50;85.10;;;;;;5022715;28;20125;-27
2023/09/21 08:03:25;;;;;;;2.47;1.70;;;20.50;83.90;;;;;;5020021;28;20073;-28
2023/09/21 08:05:52;;;;;;;2.85;1.95;;;21.20;84.10;;;;;;5022947;28;20046;-27
2023/09/21 08:08:19;;;;;;;2.58;1.70;;;;;;;;;;5019673;28;20129;-28
2023/09/21 08:10:46;;;;;;;3.97;1.67;;;21.70;84.40;;;;;;5022143;28;20129;-27
2023/09/21 08:13:12;;;;;;;3.58;1.75;;;21.30;84.60;;;;;;5022055;28;20129;-28
2023/09/21 08:15:40;;;;;;;2.75;1.70;;;22.50;75.20;;;;;;5020805;28;20129;-28
2023/09/21 08:18:10;;;;;;;2.47;1.65;;;21.20;72.90;;;;;;5021363;28;20132;-28
2023/09/21 08:20:39;;;;;;;2.58;1.83;;;;;;;;;;5019839;28;20049;-28
2023/09/21 08:23:07;;;;;;;2.38;1.60;;;21.50;84.50;;;;;;5022563;28;20220;-28
2023/09/21 08:25:35;;;;;;;2.38;1.70;;;21.00;70.60;;;;;;5023344;28;20419;-27
2023/09/21 08:28:03;;;;;;;3.05;1.85;;;21.90;72.60;;;;;;5023792;28;20039;-28
2023/09/21 08:30:30;;;;;;;2.28;1.70;;;;;;;;;;5022830;28;20041;-27
2023/09/21 08:32:58;;;;;;;2.08;1.65;;;21.50;68.50;;;;;;5023974;28;20148;-29
2023/09/21 08:35:26;;;;;;;2.00;1.50;;;;;;;;;;5022998;28;20046;-29
2023/09/21 08:37:52;;;;;;;2.90;2.03;;;20.70;84.90;;;;;;5024612;28;20084;-27
2023/09/21 08:40:20;;;;;;;3.75;1.80;;;21.70;85.20;;;;;;5024991;28;20121;-28
2023/09/21 08:42:47;;;;;;;2.35;1.58;;;21.70;84.70;;;;;;5024382;28;20125;-28
2023/09/21 08:45:14;;;;;;;2.33;1.70;;;;;;;;;;5022158;28;20058;-27
2023/09/21 08:47:41;;;;;;;2.00;1.50;;;21.10;84.80;;;;;;5023335;28;20046;-28
2023/09/21 08:50:09;;;;;;;1.92;1.50;;;21.40;84.70;;;;;;5021303;28;20434;-28
2023/09/21 08:52:37;;;;;;;2.95;1.80;;;;;;;;;;5022311;28;20153;-28
2023/09/21 08:55:04;;;;;;;2.38;1.70;;;21.60;78.80;;;;;;5021997;28;20052;-27
2023/09/21 08:57:31;;;;;;;2.97;1.75;;;21.80;85.10;;;;;;5023463;28;20121;-28
2023/09/21 08:59:58;;;;;;;2.50;1.80;;;;;;;;;;5023281;28;20084;-29
2023/09/21 09:02:25;;;;;;;2.25;1.60;;;21.60;85.60;;;;;;5022258;28;20559;-27
2023/09/21 09:04:52;;;;;;;3.35;1.55;;;;;;;;;;5029273;28;20128;-28
2023/09/21 09:07:20;;;;;;;2.17;1.60;;;21.40;82.00;;;;;;5023573;28;20078;-28
2023/09/21 09:09:47;;;;;;;2.42;1.67;;;21.70;85.70;;;;;;5022656;28;20351;-27
2023/09/21 09:12:23;;;;;;;2.35;1.65;;;22.40;85.50;;;;;;5023598;28;20109;-27
2023/09/21 09:14:50;;;;;;;2.38;1.70;;;21.30;84.90;;;;;;5021633;28;20477;-28
2023/09/21 09:17:17;;;;;;;2.95;1.55;;;;;;;;;;5024211;28;20448;-27
2023/09/21 09:19:44;;;;;;;2.70;1.60;;;21.60;85.10;;;;;;5024214;28;20067;-28
2023/09/21 09:22:11;;;;;;;2.13;1.58;;;;;;;;;;5033005;28;20485;-28
2023/09/21 09:24:39;;;;;;;2.55;1.80;;;21.30;68.90;;;;;;5033415;28;20053;-28
2023/09/21 09:27:06;;;;;;;2.35;1.58;;;22.00;86.20;;;;;;5033182;28;20140;-27
2023/09/21 09:29:34;;;;;;;3.05;1.80;;;21.60;85.20;;;;;;5033437;28;20124;-28
2023/09/21 09:32:00;;;;;;;2.17;1.70;;;21.90;85.20;;;;;;5033705;28;20049;-27
2023/09/21 09:34:28;;;;;;;2.45;1.52;;;21.30;68.90;;;;;;5032725;28;20577;-28
2023/09/21 09:36:55;;;;;;;2.65;1.80;;;;;;;;;;5032683;28;20212;-29
2023/09/21 09:39:23;;;;;;;2.47;1.60;;;21.30;69.00;;;;;;5032778;28;20430;-29
2023/09/21 09:41:53;;;;;;;2.90;1.60;;;21.30;85.00;;;;;;5032047;28;20068;-29
2023/09/21 09:44:22;;;;;;;2.35;1.70;;;20.10;69.40;;;;;;5032940;28;20056;-29
2023/09/21 09:46:49;;;;;;;3.17;1.67;;;21.90;85.40;;;;;;5032436;28;20128;-29
2023/09/21 09:49:16;;;;;;;2.53;1.55;;;;;;;;;;5033535;28;20052;-28
2023/09/21 09:51:45;;;;;;;3.53;1.80;;;22.20;85.50;;;;;;5032817;28;20136;-27
2023/09/21 09:54:12;;;;;;;2.20;1.58;;;21.00;84.90;;;;;;5032635;28;20049;-27
2023/09/21 09:56:41;;;;;;;1.80;1.50;;;20.80;85.20;;;;;;5032363;28;20465;-27
2023/09/21 09:59:09;;;;;;;3.10;1.50;;;21.20;69.20;;;;;;5032958;28;20057;-29
2023/09/21 10:01:37;;;;;;;3.00;1.58;;;;;;;;;;5032764;28;20558;-28
2023/09/21 10:04:05;;;;;;;2.35;1.70;;;21.00;85.20;;;;;;5033976;28;20080;-27
2023/09/21 10:06:34;;;;;;;2.38;1.40;;;;;;;;;;5052338;28;20132;-29
2023/09/21 10:09:02;;;;;;;1.88;1.50;;;;;;;;;;5035575;28;20049;-28
2023/09/21 10:11:29;;;;;;;5.22;1.80;;;20.20;81.80;;;;;;5032767;28;20064;-28
2023/09/21 10:13:56;;;;;;;2.92;1.70;;;;;;;;;;5032515;28;20128;-29
2023/09/21 10:16:26;;;;;;;2.83;1.85;;;21.30;80.00;;;;;;5032449;28;20077;-29
2023/09/21 10:18:55;;;;;;;2.40;1.42;;;20.90;84.70;;;;;;5032605;28;20049;-30
2023/09/21 10:21:30;;;;;;;2.13;1.50;;;20.60;85.10;;;;;;5032036;28;20065;-29
2023/09/21 10:24:04;;;;;;;2.70;1.63;;;21.00;83.90;;;;;;5028425;28;20042;-29
2023/09/21 10:26:34;;;;;;;2.83;1.73;;;21.30;78.70;;;;;;5030940;28;20045;-30
2023/09/21 10:29:03;;;;;;;2.85;1.50;;;21.00;85.40;;;;;;5031946;28;20049;-30
2023/09/21 10:31:33;;;;;;;3.00;1.52;;;21.20;86.40;;;;;;5031944;28;20128;-30
2023/09/21 10:34:13;;;;;;;3.30;1.55;;;22.10;80.70;;;;;;5031703;28;20060;-30
2023/09/21 10:36:57;;;;;;;2.47;1.77;;;21.00;80.80;;;;;;5028033;28;20053;-30
2023/09/21 10:39:28;;;;;;;3.70;1.70;;;21.40;70.60;;;;;;5028328;28;20140;-29
2023/09/21 10:42:33;;;;;;;2.90;1.85;;;20.70;86.20;;;;;;5030322;28;20045;-29
2023/09/21 10:45:10;;;;;;;2.28;1.70;;;21.10;86.40;;;;;;5020679;28;20128;-29
2023/09/21 10:47:41;;;;;;;3.08;1.77;;;21.00;85.60;;;;;;5029000;28;20080;-29
2023/09/21 10:50:11;;;;;;;2.45;1.52;;;21.50;85.90;;;;;;5031429;28;20049;-29
2023/09/21 10:52:39;;;;;;;2.28;1.70;;;;;;;;;;5029350;28;20045;-29
2023/09/21 10:55:07;;;;;;;2.38;1.48;;;21.10;69.60;;;;;;5028637;28;20427;-29
2023/09/21 10:57:35;;;;;;;2.83;1.75;;;21.10;69.60;;;;;;5030048;28;20088;-29
2023/09/21 11:00:07;;;;;;;3.22;1.50;;;;;;;;;;5032016;28;20137;-29
2023/09/21 11:02:35;;;;;;;2.58;1.58;;;20.80;85.50;;;;;;5031803;28;20057;-30
2023/09/21 11:05:02;;;;;;;3.25;1.80;;;21.30;72.60;;;;;;5037009;28;20124;-30
2023/09/21 11:07:29;;;;;;;3.53;1.92;;;20.10;85.00;;;;;;5031512;28;20133;-30
2023/09/21 11:09:57;;;;;;;1.98;1.60;;;;;;;;;;5021758;28;20050;-29
2023/09/21 11:12:24;;;;;;;3.88;2.05;;;21.20;70.90;;;;;;5021443;28;20552;-30
2023/09/21 11:14:52;;;;;;;3.33;1.67;;;21.40;81.90;;;;;;5031212;28;20566;-30
2023/09/21 11:17:19;;;;;;;3.22;1.63;;;21.20;82.90;;;;;;5031220;28;20128;-30
2023/09/21 11:19:46;;;;;;;5.55;1.90;;;20.80;86.10;;;;;;5031408;28;20128;-30
2023/09/21 11:22:13;;;;;;;3.53;1.90;;;20.70;86.30;;;;;;5027714;28;20124;-30
2023/09/21 11:24:40;;;;;;;2.72;1.90;;;19.80;85.10;;;;;;5030550;28;20482;-29
2023/09/21 11:27:09;;;;;;;4.25;2.03;;;19.90;73.10;;;;;;5031024;28;20513;-30
2023/09/21 11:29:36;;;;;;;4.70;2.10;;;20.70;85.90;;;;;;5028818;28;20053;-29
2023/09/21 11:32:05;;;;;;;4.40;1.83;;;21.00;86.60;;;;;;5031406;28;20128;-29
2023/09/21 11:34:36;;;;;;;3.63;2.10;;;21.40;86.00;;;;;;5030304;28;20050;-29
2023/09/21 11:37:03;;;;;;;3.08;1.73;;;20.90;74.00;;;;;;5021602;28;20509;-29
2023/09/21 11:39:31;;;;;;;2.38;1.80;;;;;;;;;;5022573;28;20080;-30
2023/09/21 11:41:57;;;;;;;2.38;1.63;;;21.20;76.20;;;;;;5031645;28;20041;-29
2023/09/21 11:44:29;;;;;;;4.97;1.98;;;20.90;86.70;;;;;;5031280;28;20048;-29
2023/09/21 11:46:58;;;;;;;3.33;1.88;;;21.00;70.00;;;;;;5031084;28;20075;-29
2023/09/21 11:49:36;;;;;;;3.92;1.73;;;20.50;85.90;;;;;;5031703;28;20049;-29
2023/09/21 11:52:04;;;;;;;3.20;1.90;;;21.00;70.00;;;;;;5031230;28;20128;-28
2023/09/21 11:54:34;;;;;;;2.92;2.08;;;19.80;85.90;;;;;;5031461;28;20053;-30
2023/09/21 11:57:03;;;;;;;2.13;1.73;;;20.50;86.70;;;;;;5033667;28;20395;-30
2023/09/21 11:59:31;;;;;;;2.20;1.80;;;19.80;71.20;;;;;;5035270;28;20049;-29
2023/09/21 12:01:59;;;;;;;3.30;1.80;;;20.90;86.80;;;;;;5035068;28;20481;-30
2023/09/21 12:04:28;;;;;;;5.32;2.00;;;21.20;83.40;;;;;;5036102;28;20064;-29
2023/09/21 12:06:56;;;;;;;2.78;1.80;;;20.20;85.70;;;;;;5024642;28;20072;-30
2023/09/21 12:09:24;;;;;;;3.42;2.03;;;;;;;;;;5026365;28;20467;-28
2023/09/21 12:11:54;;;;;;;3.00;1.83;;;20.40;81.10;;;;;;5033355;28;20129;-27
2023/09/21 12:14:21;;;;;;;2.70;1.70;;;20.90;73.50;;;;;;5033969;28;20064;-28
2023/09/21 12:16:50;;;;;;;3.00;2.05;;;;;;;;;;5034208;28;20124;-28
2023/09/21 12:19:18;;;;;;;3.00;1.77;;;20.90;86.10;;;;;;5034469;28;20052;-28
2023/09/21 12:21:46;;;;;;;2.95;1.92;;;20.20;85.60;;;;;;5031403;28;20041;-28
2023/09/21 12:24:14;;;;;;;2.80;1.88;;;19.80;76.30;;;;;;5033276;28;20053;-27
2023/09/21 12:26:41;;;;;;;2.50;1.80;;;22.00;77.90;;;;;;5029596;28;20132;-28
2023/09/21 12:29:08;;;;;;;3.45;1.88;;;22.10;86.80;;;;;;5032425;28;20045;-28
2023/09/21 12:31:37;;;;;;;3.13;2.05;;;;;;;;;;5032984;28;20124;-27
2023/09/21 12:34:03;;;;;;;3.22;2.03;;;20.50;86.60;;;;;;5032765;28;20587;-27
2023/09/21 12:36:30;;;;;;;2.38;1.85;;;20.10;86.60;;;;;;5028926;28;20577;-28
2023/09/21 12:38:58;;;;;;;3.20;1.80;;;;;;;;;;5033295;28;20132;-28
2023/09/21 12:41:29;;;;;;;3.42;2.00;;;21.20;75.90;;;;;;5034240;28;20072;-28
2023/09/21 12:43:56;;;;;;;3.47;1.95;;;21.60;87.40;;;;;;5034557;28;20053;-27
2023/09/21 12:46:24;;;;;;;4.22;2.10;;;20.70;86.10;;;;;;5033844;28;20605;-27
2023/09/21 12:48:52;;;;;;;3.75;2.17;;;;;;;;;;5034331;28;20053;-29
2023/09/21 12:51:18;;;;;;;2.88;1.90;;;20.80;87.00;;;;;;5033561;28;20049;-30
2023/09/21 12:53:45;;;;;;;3.88;1.80;;;;;;;;;;5034268;28;20128;-29
2023/09/21 12:56:12;;;;;;;2.55;1.80;;;20.20;86.50;;;;;;5033898;28;20128;-30
2023/09/21 12:58:40;;;;;;;4.00;2.17;;;20.60;86.20;;;;;;5034356;28;20056;-30
2023/09/21 13:01:07;;;;;;;3.22;2.00;;;22.20;79.40;;;;;;5033828;28;20656;-30
2023/09/21 13:03:34;;;;;;;4.40;2.10;;;20.80;75.80;;;;;;5033962;28;20128;-29
2023/09/21 13:06:01;;;;;;;4.32;1.98;;;21.10;86.30;;;;;;5050616;28;20128;-30
2023/09/21 13:08:28;;;;;;;3.63;2.00;;;21.10;70.30;;;;;;5043486;28;20114;-29
2023/09/21 13:10:55;;;;;;;3.35;1.88;;;21.40;84.90;;;;;;5033768;28;20557;-29
2023/09/21 13:13:22;;;;;;;2.75;1.80;;;22.10;78.20;;;;;;5033471;28;20108;-29
2023/09/21 13:15:50;;;;;;;3.35;2.00;;;20.90;86.00;;;;;;5031476;28;20118;-30